Latest Weather Observations for Wagga Wagga

IDN60801

Issued at 7:05 am EST Tuesday 2 September 2014 (issued every 30 minutes, with the page automatically refreshed every 10 minutes)

About weather observations | Map of weather stations | Latest weather observations for NSW | Other Formats
Station Details ID: 072150 Name: WAGGA WAGGA AMO Lat: -35.16 Lon: 147.46 Height: 212.0 m
Data from the previous 72 hours. | See also: Recent months at Wagga Wagga
Date/Time
EST
Temp
°C
App
Temp
°C
Dew
Point
Rel
Hum
%
Delta-T
°C
Wind Press
QNH
hPa
Press
MSL
hPa
Rain
since 9 am
mm
Dir
 
Spd
km/h
Gust
km/h
Spd
kts
Gust
kts
02/07:00am 7.5 2.9 5.7 88 0.8 WSW 19 24 10 13 1012.7 1012.8 1.4
02/06:43am 7.5 2.7 5.7 88 0.8 WSW 20 26 11 14 1012.6 - 1.4
02/06:30am 7.6 2.8 5.8 88 0.8 WSW 20 30 11 16 1012.4 - 1.4
02/06:00am 7.9 3.2 6.2 89 0.8 WSW 20 26 11 14 1012.0 1012.1 1.4
02/05:30am 8.3 4.6 6.4 88 0.9 WSW 15 19 8 10 1011.9 - 1.4
02/05:00am 8.5 3.5 6.4 87 1.0 WSW 22 32 12 17 1011.8 1011.9 1.4
02/04:30am 8.7 5.2 7.0 89 0.8 SW 15 19 8 10 1011.4 - 1.4
02/04:12am 8.8 4.9 7.1 89 0.8 W 17 24 9 13 1011.4 - 1.4
02/04:00am 8.9 4.6 7.0 88 0.9 W 19 26 10 14 1011.3 1011.4 1.4
02/03:39am 8.9 4.5 7.4 90 0.7 W 20 28 11 15 1011.1 - 1.4
02/03:30am 8.9 4.6 7.7 92 0.6 WSW 20 28 11 15 1011.1 - 1.4
02/03:19am 9.0 4.9 8.0 93 0.5 W 19 26 10 14 1011.3 - 1.4
02/03:03am 9.0 5.3 8.0 93 0.5 W 17 24 9 13 1011.2 - 1.4
02/03:00am 9.1 5.8 7.9 92 0.6 W 15 24 8 13 1011.3 1011.4 1.4
02/02:30am 9.3 5.5 7.6 89 0.8 W 17 22 9 12 1011.4 - 1.4
02/02:00am 9.3 5.6 8.1 92 0.6 W 17 22 9 12 1011.6 1011.7 1.4
02/01:30am 8.9 6.3 7.9 93 0.5 W 11 13 6 7 1011.6 - 1.4
02/01:25am 8.8 6.2 7.8 93 0.5 WNW 11 13 6 7 1011.7 - 1.4
02/01:00am 8.7 6.1 7.9 95 0.4 WNW 11 15 6 8 1011.6 1011.7 1.4
02/12:30am 8.9 5.9 7.9 93 0.5 W 13 19 7 10 1011.9 - 1.4
02/12:17am 8.9 5.2 7.9 93 0.5 WSW 17 26 9 14 1012.0 - 1.4
02/12:00am 9.1 5.4 7.9 92 0.6 W 17 22 9 12 1012.2 1012.3 1.2
 
Date/Time
EST
Temp
°C
App
Temp
°C
Dew
Point
Rel
Hum
%
Delta-T
°C
Wind Press
QNH
hPa
Press
MSL
hPa
Rain
since 9 am
mm
Dir
 
Spd
km/h
Gust
km/h
Spd
kts
Gust
kts
01/11:30pm 9.2 5.5 8.0 92 0.6 W 17 24 9 13 1012.4 - 1.2
01/11:28pm 9.2 5.5 8.0 92 0.6 W 17 24 9 13 1012.4 - 1.2
01/11:02pm 9.5 5.9 8.5 93 0.5 WNW 17 20 9 11 1012.2 - 0.2
01/11:00pm 9.5 5.9 8.3 92 0.6 WNW 17 20 9 11 1012.2 1012.3 0.2
01/10:30pm 10.1 6.3 7.6 84 1.2 W 17 22 9 12 1012.3 - 0.0
01/10:00pm 10.7 6.3 7.4 80 1.6 W 20 28 11 15 1012.0 1012.1 0.0
01/09:30pm 11.5 8.0 7.2 75 2.1 WSW 15 24 8 13 1012.4 - 0.0
01/09:00pm 11.4 7.6 7.7 78 1.8 SW 17 24 9 13 1012.3 1012.4 0.0
01/08:30pm 12.1 8.6 7.2 72 2.4 WSW 15 20 8 11 1012.4 - 0.0
01/08:00pm 12.5 9.6 6.7 68 2.8 WSW 11 17 6 9 1011.7 1011.8 0.0
01/07:30pm 13.3 7.4 6.0 61 3.5 WSW 26 33 14 18 1011.5 - 0.0
01/07:00pm 14.0 10.2 4.1 51 4.6 WSW 13 19 7 10 1010.6 1010.6 0.0
01/06:30pm 14.7 9.8 4.2 49 4.9 WSW 19 28 10 15 1009.8 - 0.0
01/06:00pm 15.7 8.7 2.2 40 6.1 WSW 28 35 15 19 1009.6 1009.6 0.0
01/05:38pm 17.5 10.1 1.9 35 7.1 W 30 41 16 22 1009.3 - 0.0
01/05:30pm 17.5 14.5 6.0 46 5.7 N 11 15 6 8 1008.9 - 0.0
01/05:00pm 18.6 15.5 5.4 42 6.5 N 11 15 6 8 1008.8 1008.9 0.0
01/04:30pm 19.3 15.8 3.3 34 7.6 N 11 17 6 9 1008.9 - 0.0
01/04:00pm 19.9 15.4 2.4 31 8.2 NNW 15 24 8 13 1009.1 1009.2 0.0
01/03:30pm 20.3 15.1 2.2 30 8.5 NNW 19 26 10 14 1009.4 - 0.0
01/03:00pm 21.2 15.9 2.8 29 8.8 NNW 20 30 11 16 1009.7 1009.7 0.0
01/02:30pm 20.7 17.4 6.4 39 7.3 N 13 17 7 9 1010.1 - 0.0
01/02:00pm 19.8 15.1 6.1 40 6.9 N 20 28 11 15 1010.6 1010.6 0.0
01/01:30pm 21.1 15.6 5.9 37 7.7 N 24 33 13 18 1011.0 - 0.0
01/01:00pm 19.9 15.1 5.4 38 7.2 NNW 20 32 11 17 1011.7 1011.8 0.0
01/12:30pm 20.3 15.4 4.0 34 7.9 NNW 19 33 10 18 1012.1 - 0.0
01/12:00pm 20.0 15.2 4.4 35 7.6 N 19 28 10 15 1012.7 1012.8 0.0
01/11:30am 19.9 16.5 5.7 39 7.1 NNE 13 20 7 11 1013.3 - 0.0
01/11:00am 17.9 14.8 7.3 50 5.4 N 13 24 7 13 1014.2 1014.2 0.0
01/10:30am 16.5 13.4 7.1 53 4.7 N 13 19 7 10 1014.7 - 0.0
01/10:00am 15.8 13.4 7.0 56 4.4 NNE 9 17 5 9 1015.0 1015.1 0.0
01/09:30am 13.9 11.2 7.2 64 3.3 E 11 15 6 8 1015.2 - 0.0
01/09:00am 11.7 8.7 6.0 68 2.7 E 11 13 6 7 1015.5 1015.8 0.0
01/08:30am 8.9 5.3 5.2 77 1.7 E 13 17 7 9 1015.5 - 0.0
01/08:00am 7.7 3.6 4.5 80 1.4 E 15 19 8 10 1015.5 1015.8 0.0
01/07:30am 7.4 3.7 4.2 80 1.4 E 13 17 7 9 1015.8 - 0.0
01/07:00am 7.0 2.8 4.0 81 1.3 E 15 17 8 9 1015.9 1016.2 0.0
01/06:30am 6.7 2.5 3.7 81 1.3 E 15 17 8 9 1015.8 - 0.0
01/06:00am 6.2 1.9 3.4 82 1.2 ESE 15 17 8 9 1015.8 1016.1 0.0
01/05:30am 6.7 2.9 3.7 81 1.3 E 13 15 7 8 1015.8 - 0.0
01/05:00am 6.6 2.8 3.8 82 1.2 E 13 15 7 8 1015.8 1016.1 0.0
01/04:30am 6.6 2.7 3.6 81 1.3 E 13 15 7 8 1015.7 - 0.0
01/04:00am 5.6 1.6 3.0 83 1.1 ESE 13 15 7 8 1015.7 1016.0 0.0
01/03:30am 5.8 2.2 3.2 83 1.1 ESE 11 13 6 7 1015.6 - 0.0
01/03:00am 7.2 3.7 3.7 78 1.5 E 11 13 6 7 1015.8 1016.1 0.0
01/02:30am 7.6 3.7 3.4 75 1.8 E 13 15 7 8 1015.8 - 0.0
01/02:00am 7.6 3.3 3.4 75 1.8 E 15 17 8 9 1016.0 1016.3 0.0
01/01:30am 8.1 3.8 3.5 73 2.0 E 15 15 8 8 1016.3 - 0.0
01/01:00am 8.4 4.5 3.6 72 2.1 E 13 13 7 7 1016.4 1016.7 0.0
01/12:30am 8.8 4.2 3.5 69 2.3 E 17 19 9 10 1016.3 - 0.0
01/12:00am 7.5 4.4 3.6 76 1.7 ESE 9 13 5 7 1016.6 1016.9 0.0
 
Date/Time
EST
Temp
°C
App
Temp
°C
Dew
Point
Rel
Hum
%
Delta-T
°C
Wind Press
QNH
hPa
Press
MSL
hPa
Rain
since 9 am
mm
Dir
 
Spd
km/h
Gust
km/h
Spd
kts
Gust
kts
31/11:30pm 7.1 4.4 3.9 80 1.4 E 7 9 4 5 1016.8 - 0.0
31/11:00pm 5.5 2.8 3.6 87 0.8 E 7 11 4 6 1016.8 1017.1 0.0
31/10:30pm 5.8 2.7 3.4 84 1.0 E 9 11 5 6 1017.0 - 0.0
31/10:00pm 7.3 4.8 3.8 78 1.5 E 6 13 3 7 1017.2 1017.5 0.0
31/09:30pm 6.2 4.8 3.4 82 1.2 CALM 0 0 0 0 1017.7 - 0.0
31/09:00pm 8.2 5.1 3.6 73 2.0 E 9 9 5 5 1017.7 1018.0 0.0
31/08:30pm 9.2 5.8 4.0 70 2.3 E 11 13 6 7 1017.8 - 0.0
31/08:00pm 8.2 7.0 4.6 78 1.6 CALM 0 4 0 2 1018.1 1018.5 0.0
31/07:30pm 9.2 6.6 4.0 70 2.3 E 7 7 4 4 1018.0 - 0.0
31/07:00pm 12.2 9.6 4.3 58 3.6 E 7 9 4 5 1017.6 1017.9 0.0
31/06:30pm 12.5 9.6 4.7 59 3.6 ESE 9 11 5 6 1017.5 - 0.0
31/06:00pm 14.9 11.6 4.7 50 4.8 ESE 11 11 6 6 1017.3 1017.6 0.0
31/05:30pm 16.6 13.4 3.2 40 6.2 ESE 9 9 5 5 1017.3 - 0.0
31/05:00pm 17.4 14.2 3.3 39 6.6 ESE 9 9 5 5 1017.2 1017.5 0.0
31/04:30pm 18.0 15.2 3.3 37 6.9 ESE 7 9 4 5 1017.2 - 0.0
31/04:00pm 18.3 15.2 3.8 38 6.9 ESE 9 13 5 7 1017.3 1017.6 0.0
31/03:30pm 18.9 16.2 2.9 34 7.5 NNW 6 11 3 6 1017.5 - 0.0
31/03:00pm 18.7 16.5 3.2 35 7.3 ESE 4 7 2 4 1017.7 1018.0 0.0
31/02:30pm 18.9 16.3 3.2 35 7.4 NNE 6 9 3 5 1018.0 - 0.0
31/02:00pm 18.6 15.7 4.5 39 6.8 NNW 9 15 5 8 1018.3 1018.7 0.0
31/01:30pm 18.6 16.4 6.2 44 6.2 WNW 7 11 4 6 1018.6 - 0.0
31/01:00pm 18.3 16.0 5.7 43 6.2 SSW 7 9 4 5 1019.2 1019.5 0.0
31/12:30pm 17.4 14.9 6.6 49 5.4 NE 9 13 5 7 1019.6 - 0.0
31/12:00pm 16.5 14.9 7.8 56 4.4 N 6 13 3 7 1020.3 1020.6 0.0
31/11:30am 15.8 14.0 8.1 60 3.9 N 7 13 4 7 1021.0 - 0.0
31/11:00am 15.3 13.6 7.7 60 3.8 ENE 6 11 3 6 1021.5 1021.8 0.0
31/10:30am 13.6 11.1 6.6 62 3.4 ENE 9 11 5 6 1021.9 - 0.0
31/10:00am 12.6 10.2 6.8 68 2.8 E 9 13 5 7 1022.3 1022.7 0.0
31/09:30am 10.8 8.3 6.6 75 2.0 E 9 11 5 6 1022.6 - 0.0
31/09:00am 9.9 6.8 5.6 74 2.0 E 11 13 6 7 1022.5 1022.9 0.0
31/08:30am 8.4 4.8 4.8 78 1.6 E 13 15 7 8 1022.4 - 0.0
31/08:00am 7.0 3.7 4.5 84 1.1 E 11 15 6 8 1022.3 1022.7 0.0
31/07:30am 5.9 2.5 4.0 88 0.8 E 11 13 6 7 1022.1 - 0.0
31/07:00am 3.4 -0.3 2.4 93 0.4 ESE 11 13 6 7 1021.9 1022.3 0.0
31/06:30am 2.8 -1.0 1.5 91 0.5 ESE 11 13 6 7 1021.6 - 0.0
31/06:00am 3.8 0.6 2.8 93 0.4 E 9 11 5 6 1021.4 1021.7 0.0
31/05:30am 4.0 0.8 2.8 92 0.5 SE 9 11 5 6 1021.0 - 0.0
31/05:00am 5.0 2.2 3.3 89 0.7 E 7 9 4 5 1020.9 1021.2 0.0
31/04:30am 4.9 1.8 3.5 91 0.6 E 9 9 5 5 1020.7 - 0.0
31/04:00am 4.9 1.7 3.2 89 0.7 ESE 9 11 5 6 1020.7 1021.0 0.0
31/03:30am 5.1 1.6 3.4 89 0.7 ESE 11 13 6 7 1021.1 - 0.0
31/03:00am 3.0 -0.4 1.7 91 0.5 E 9 11 5 6 1021.2 1021.5 0.0
31/02:30am 5.0 1.8 3.3 89 0.7 ESE 9 11 5 6 1021.5 - 0.0
31/02:00am 5.0 1.1 3.6 91 0.6 ESE 13 13 7 7 1021.7 1022.0 0.0
31/01:30am 6.1 2.3 3.8 85 1.0 ESE 13 13 7 7 1022.0 - 0.0
31/01:00am 4.6 1.4 2.9 89 0.7 ENE 9 9 5 5 1022.2 1022.6 0.0
31/12:30am 4.5 1.2 2.5 87 0.8 E 9 11 5 6 1022.3 - 0.0
31/12:00am 5.1 2.5 3.2 87 0.8 ESE 6 9 3 5 1022.4 1022.8 0.0
 
Date/Time
EST
Temp
°C
App
Temp
°C
Dew
Point
Rel
Hum
%
Delta-T
°C
Wind Press
QNH
hPa
Press
MSL
hPa
Rain
since 9 am
mm
Dir
 
Spd
km/h
Gust
km/h
Spd
kts
Gust
kts
30/11:30pm 5.5 2.9 3.4 86 0.9 SE 6 7 3 4 1022.5 - 0.0
30/11:00pm 5.6 2.9 3.7 87 0.8 SE 7 9 4 5 1022.6 1023.0 0.0
30/10:30pm 4.4 2.1 2.7 89 0.7 SE 4 7 2 4 1022.8 - 0.0
30/10:00pm 6.4 5.0 3.8 83 1.1 CALM 0 0 0 0 1022.8 1023.2 0.0
30/09:30pm 5.9 4.5 3.8 86 0.9 CALM 0 0 0 0 1023.0 - 0.0
30/09:00pm 7.8 6.4 3.6 75 1.8 CALM 0 0 0 0 1023.0 1023.4 0.0
30/08:30pm 7.9 6.6 4.3 78 1.6 CALM 0 0 0 0 1022.9 - 0.0
30/08:00pm 8.6 6.1 4.0 73 2.0 SE 6 7 3 4 1022.8 1023.2 0.0
30/07:30pm 10.1 8.7 5.3 72 2.2 SE 2 6 1 3 1022.9 - 0.0
30/07:00pm 11.3 9.0 4.7 64 3.0 SE 6 7 3 4 1022.6 1023.0 0.0
30/06:30pm 11.4 8.7 5.4 66 2.8 SW 9 9 5 5 1022.3 - 0.0
30/06:00pm 13.2 10.5 5.6 60 3.6 SW 9 11 5 6 1022.3 1022.7 0.0
30/05:30pm 16.7 15.4 3.9 42 6.0 CALM 0 0 0 0 1022.4 - 0.0
30/05:00pm 17.0 15.9 4.9 44 5.8 CALM 0 0 0 0 1022.4 1022.8 0.0
30/04:30pm 17.7 15.8 3.1 37 6.8 S 2 7 1 4 1022.3 - 0.0
30/04:00pm 17.9 15.1 3.1 37 6.9 SE 7 11 4 6 1022.4 1022.8 0.0
30/03:30pm 18.3 15.1 2.8 35 7.2 S 9 13 5 7 1022.4 - 0.0
30/03:00pm 18.1 15.4 2.5 35 7.2 SSE 6 9 3 5 1022.5 1022.9 0.0
30/02:30pm 18.3 16.0 2.5 35 7.3 NNW 4 9 2 5 1022.7 - 0.0
30/02:00pm 18.6 15.5 1.3 31 7.8 N 7 13 4 7 1023.0 1023.4 0.0
30/01:30pm 17.6 14.0 0.9 32 7.4 N 9 15 5 8 1023.6 - 0.0
30/01:00pm 17.8 15.2 4.1 40 6.5 E 7 15 4 8 1024.2 1024.5 0.0
30/12:30pm 16.9 13.4 3.6 41 6.2 ENE 11 17 6 9 1024.8 - 0.0
30/12:00pm 15.9 12.3 3.0 42 5.9 ENE 11 17 6 9 1025.3 1025.6 0.0
30/11:30am 15.3 11.4 1.1 38 6.2 ENE 11 15 6 8 1025.9 - 0.0
30/11:00am 15.0 11.7 4.3 48 5.0 NE 11 15 6 8 1026.3 1026.7 0.0
30/10:30am 13.8 11.6 6.1 59 3.7 ESE 7 11 4 6 1026.6 - 0.0
30/10:00am 12.2 9.2 6.1 66 2.9 E 11 15 6 8 1026.8 1027.2 0.0
30/09:30am 11.0 9.1 6.6 74 2.1 ESE 6 9 3 5 1026.8 - 0.0
30/09:00am 9.6 7.4 6.2 79 1.6 E 7 9 4 5 1026.8 1027.2 0.0
30/08:30am 8.3 5.5 5.2 81 1.4 E 9 11 5 6 1026.9 - 0.0
30/08:00am 6.9 5.7 4.4 84 1.1 CALM 0 0 0 0 1026.9 1027.3 0.0
30/07:30am 5.2 2.6 4.0 92 0.5 E 7 9 4 5 1026.7 - 0.0

Other Formats:

Comma delimited format used in spreadsheet applications
http://www.bom.gov.au/fwo/IDN60801/IDN60801.94910.axf

JavaScript Object Notation format (JSON) in row-major order
http://www.bom.gov.au/fwo/IDN60801/IDN60801.94910.json